Oostburg, Wisconsin
Current Conditions -  °F | °C
As of 12:02 AM on Thursday 23 Oct 2014 (Local Time) from KSBM Reporting Station
Haze Haze  
Wind Chill: 32°   Ceiling: Unl
Heat Index: 32°   Visibility: 6mi
Dew Point: 31°   Wind: 0mph
Humidity: 96%   Direction: NA
Pressure: 30.25"   Gusts: NA
Location:  43.62°N, 87.79°W
Report Text: KSBM 230502Z AUTO 00000KT 6SM BR CLR 00/M01 A3025 RMK AO2 T00001006
Loading
Personal Weather Stations






























Interactive Weather Map
Tropical Storm Tracking
New forecast layout! Learn more

10-Day Weather Forecast

Advertisements
Track Severe Weather on mobile